sensor_id;sensor_type;location;lat;lon;timestamp;temperature;humidity
1678;DHT22;6034;46.864;15.216;2023-03-14T05:24:53;11.60;99.90
1678;DHT22;6034;46.864;15.216;2023-03-14T05:27:22;11.60;99.90
1678;DHT22;6034;46.864;15.216;2023-03-14T05:29:50;11.60;99.90
1678;DHT22;6034;46.864;15.216;2023-03-14T05:32:17;11.60;99.90
1678;DHT22;6034;46.864;15.216;2023-03-14T05:34:44;11.80;99.90
1678;DHT22;6034;46.864;15.216;2023-03-14T05:37:11;11.70;99.90
1678;DHT22;6034;46.864;15.216;2023-03-14T05:39:38;11.80;99.90
1678;DHT22;6034;46.864;15.216;2023-03-14T05:42:07;11.80;99.90
1678;DHT22;6034;46.864;15.216;2023-03-14T05:44:34;11.80;99.90
1678;DHT22;6034;46.864;15.216;2023-03-14T05:47:01;11.70;99.90
1678;DHT22;6034;46.864;15.216;2023-03-14T05:49:29;11.80;99.90
1678;DHT22;6034;46.864;15.216;2023-03-14T05:51:56;11.60;99.90
1678;DHT22;6034;46.864;15.216;2023-03-14T05:54:23;11.70;99.90
1678;DHT22;6034;46.864;15.216;2023-03-14T05:56:50;11.70;99.90
1678;DHT22;6034;46.864;15.216;2023-03-14T05:59:19;11.80;99.90
1678;DHT22;6034;46.864;15.216;2023-03-14T06:01:46;11.90;99.90
1678;DHT22;6034;46.864;15.216;2023-03-14T06:04:13;12.10;99.90
1678;DHT22;6034;46.864;15.216;2023-03-14T06:06:41;12.20;99.90
1678;DHT22;6034;46.864;15.216;2023-03-14T06:09:08;12.40;99.90
1678;DHT22;6034;46.864;15.216;2023-03-14T06:11:35;12.40;99.90
1678;DHT22;6034;46.864;15.216;2023-03-14T06:14:02;12.50;99.90
1678;DHT22;6034;46.864;15.216;2023-03-14T06:18:58;12.70;99.90
1678;DHT22;6034;46.864;15.216;2023-03-14T06:21:25;12.80;99.90
1678;DHT22;6034;46.864;15.216;2023-03-14T06:23:53;12.90;99.90
1678;DHT22;6034;46.864;15.216;2023-03-14T06:26:20;12.80;99.90
1678;DHT22;6034;46.864;15.216;2023-03-14T06:28:47;12.90;99.90
1678;DHT22;6034;46.864;15.216;2023-03-14T06:31:14;13.00;99.90
1678;DHT22;6034;46.864;15.216;2023-03-14T06:33:43;13.10;99.90
1678;DHT22;6034;46.864;15.216;2023-03-14T06:36:11;13.20;99.90
1678;DHT22;6034;46.864;15.216;2023-03-14T06:38:38;13.10;99.90
1678;DHT22;6034;46.864;15.216;2023-03-14T06:41:06;13.00;99.90
1678;DHT22;6034;46.864;15.216;2023-03-14T06:43:34;12.90;99.90
1678;DHT22;6034;46.864;15.216;2023-03-14T06:46:01;12.80;99.90
1678;DHT22;6034;46.864;15.216;2023-03-14T06:48:28;13.00;99.90
1678;DHT22;6034;46.864;15.216;2023-03-14T06:50:57;12.90;99.90
1678;DHT22;6034;46.864;15.216;2023-03-14T06:53:24;13.00;99.90
1678;DHT22;6034;46.864;15.216;2023-03-14T06:55:52;13.10;99.90
1678;DHT22;6034;46.864;15.216;2023-03-14T06:58:19;13.30;99.90
1678;DHT22;6034;46.864;15.216;2023-03-14T07:00:46;13.50;99.90
1678;DHT22;6034;46.864;15.216;2023-03-14T07:03:14;13.60;99.90
1678;DHT22;6034;46.864;15.216;2023-03-14T07:05:42;13.70;99.90
1678;DHT22;6034;46.864;15.216;2023-03-14T07:08:10;13.90;99.90
1678;DHT22;6034;46.864;15.216;2023-03-14T07:10:38;14.00;99.90
1678;DHT22;6034;46.864;15.216;2023-03-14T07:13:05;14.20;99.90
1678;DHT22;6034;46.864;15.216;2023-03-14T07:15:32;14.20;99.90
1678;DHT22;6034;46.864;15.216;2023-03-14T07:17:59;14.20;99.90
1678;DHT22;6034;46.864;15.216;2023-03-14T07:20:27;14.50;99.90
1678;DHT22;6034;46.864;15.216;2023-03-14T07:22:54;14.50;99.90
1678;DHT22;6034;46.864;15.216;2023-03-14T07:25:23;14.50;99.90
1678;DHT22;6034;46.864;15.216;2023-03-14T07:27:51;14.70;99.90
1678;DHT22;6034;46.864;15.216;2023-03-14T07:30:18;14.50;99.90
1678;DHT22;6034;46.864;15.216;2023-03-14T07:32:46;14.40;99.90
1678;DHT22;6034;46.864;15.216;2023-03-14T07:35:13;14.20;99.90
1678;DHT22;6034;46.864;15.216;2023-03-14T07:37:40;14.30;99.90
1678;DHT22;6034;46.864;15.216;2023-03-14T07:40:09;14.20;99.90
1678;DHT22;6034;46.864;15.216;2023-03-14T07:42:39;14.10;99.90
1678;DHT22;6034;46.864;15.216;2023-03-14T07:45:08;14.10;99.90
1678;DHT22;6034;46.864;15.216;2023-03-14T07:47:35;14.10;99.90
1678;DHT22;6034;46.864;15.216;2023-03-14T07:50:03;14.00;99.90
1678;DHT22;6034;46.864;15.216;2023-03-14T07:52:31;13.70;99.90
1678;DHT22;6034;46.864;15.216;2023-03-14T07:54:58;14.10;99.90
1678;DHT22;6034;46.864;15.216;2023-03-14T07:57:25;14.60;99.90
1678;DHT22;6034;46.864;15.216;2023-03-14T07:59:54;14.90;99.90
1678;DHT22;6034;46.864;15.216;2023-03-14T08:02:21;15.40;99.90
1678;DHT22;6034;46.864;15.216;2023-03-14T08:04:50;15.40;99.90
1678;DHT22;6034;46.864;15.216;2023-03-14T08:07:17;15.40;99.90
1678;DHT22;6034;46.864;15.216;2023-03-14T08:09:44;14.80;99.90
1678;DHT22;6034;46.864;15.216;2023-03-14T08:12:12;14.70;99.90
1678;DHT22;6034;46.864;15.216;2023-03-14T08:14:41;14.70;99.90
1678;DHT22;6034;46.864;15.216;2023-03-14T08:17:10;14.90;99.90
1678;DHT22;6034;46.864;15.216;2023-03-14T08:19:37;14.70;99.90
1678;DHT22;6034;46.864;15.216;2023-03-14T08:22:05;14.60;99.90
1678;DHT22;6034;46.864;15.216;2023-03-14T08:24:32;14.30;99.90
1678;DHT22;6034;46.864;15.216;2023-03-14T08:26:59;14.20;99.90
1678;DHT22;6034;46.864;15.216;2023-03-14T08:29:27;14.50;99.90
1678;DHT22;6034;46.864;15.216;2023-03-14T08:31:54;14.60;99.90
1678;DHT22;6034;46.864;15.216;2023-03-14T08:34:23;14.60;99.90
1678;DHT22;6034;46.864;15.216;2023-03-14T08:36:50;14.70;99.90
1678;DHT22;6034;46.864;15.216;2023-03-14T08:39:17;14.90;99.90
1678;DHT22;6034;46.864;15.216;2023-03-14T08:41:44;14.80;99.90
1678;DHT22;6034;46.864;15.216;2023-03-14T08:44:12;14.40;99.90
1678;DHT22;6034;46.864;15.216;2023-03-14T08:46:40;14.40;99.90
1678;DHT22;6034;46.864;15.216;2023-03-14T08:49:07;14.60;99.90
1678;DHT22;6034;46.864;15.216;2023-03-14T08:51:36;14.80;99.90
1678;DHT22;6034;46.864;15.216;2023-03-14T08:54:03;14.80;99.90
1678;DHT22;6034;46.864;15.216;2023-03-14T08:56:30;14.90;99.90
1678;DHT22;6034;46.864;15.216;2023-03-14T08:58:57;15.00;99.90
1678;DHT22;6034;46.864;15.216;2023-03-14T09:01:25;15.00;99.90
1678;DHT22;6034;46.864;15.216;2023-03-14T09:03:52;14.70;99.90
1678;DHT22;6034;46.864;15.216;2023-03-14T09:06:19;14.80;99.90
1678;DHT22;6034;46.864;15.216;2023-03-14T09:08:48;14.90;99.90
1678;DHT22;6034;46.864;15.216;2023-03-14T09:11:15;15.00;99.90
1678;DHT22;6034;46.864;15.216;2023-03-14T09:13:44;15.00;99.90
1678;DHT22;6034;46.864;15.216;2023-03-14T09:16:11;15.10;99.90
1678;DHT22;6034;46.864;15.216;2023-03-14T09:18:39;14.90;99.90
1678;DHT22;6034;46.864;15.216;2023-03-14T09:21:06;15.00;99.90
1678;DHT22;6034;46.864;15.216;2023-03-14T09:23:34;15.10;99.90
1678;DHT22;6034;46.864;15.216;2023-03-14T09:26:02;15.20;99.90
1678;DHT22;6034;46.864;15.216;2023-03-14T09:28:30;15.10;99.90
1678;DHT22;6034;46.864;15.216;2023-03-14T09:30:57;15.10;99.90
1678;DHT22;6034;46.864;15.216;2023-03-14T09:33:24;15.20;99.90
1678;DHT22;6034;46.864;15.216;2023-03-14T09:35:52;15.30;99.90
1678;DHT22;6034;46.864;15.216;2023-03-14T09:38:19;15.30;99.90
1678;DHT22;6034;46.864;15.216;2023-03-14T09:40:47;15.30;99.10
1678;DHT22;6034;46.864;15.216;2023-03-14T09:43:16;15.30;99.70
1678;DHT22;6034;46.864;15.216;2023-03-14T09:45:45;15.30;99.90
1678;DHT22;6034;46.864;15.216;2023-03-14T09:48:16;15.30;99.70
1678;DHT22;6034;46.864;15.216;2023-03-14T09:50:46;15.20;99.70
1678;DHT22;6034;46.864;15.216;2023-03-14T09:53:17;15.50;99.90
1678;DHT22;6034;46.864;15.216;2023-03-14T09:55:48;15.70;99.90
1678;DHT22;6034;46.864;15.216;2023-03-14T09:58:19;16.10;99.90
1678;DHT22;6034;46.864;15.216;2023-03-14T10:00:48;16.30;98.90
1678;DHT22;6034;46.864;15.216;2023-03-14T10:03:25;16.60;98.90
1678;DHT22;6034;46.864;15.216;2023-03-14T10:05:52;16.80;98.70
1678;DHT22;6034;46.864;15.216;2023-03-14T10:08:22;16.90;97.80
1678;DHT22;6034;46.864;15.216;2023-03-14T10:10:49;16.90;97.50
1678;DHT22;6034;46.864;15.216;2023-03-14T10:13:19;17.00;96.30
1678;DHT22;6034;46.864;15.216;2023-03-14T10:15:51;17.10;95.70
1678;DHT22;6034;46.864;15.216;2023-03-14T10:18:19;17.00;94.80
1678;DHT22;6034;46.864;15.216;2023-03-14T10:20:49;17.10;95.50
1678;DHT22;6034;46.864;15.216;2023-03-14T10:23:24;17.10;94.60
1678;DHT22;6034;46.864;15.216;2023-03-14T10:26:05;17.40;95.10
1678;DHT22;6034;46.864;15.216;2023-03-14T10:28:39;17.40;94.40
1678;DHT22;6034;46.864;15.216;2023-03-14T10:31:07;17.40;94.80
1678;DHT22;6034;46.864;15.216;2023-03-14T10:33:36;17.20;94.30
1678;DHT22;6034;46.864;15.216;2023-03-14T10:36:15;16.80;93.60
1678;DHT22;6034;46.864;15.216;2023-03-14T10:38:44;16.50;93.30
1678;DHT22;6034;46.864;15.216;2023-03-14T10:41:17;16.40;93.90
1678;DHT22;6034;46.864;15.216;2023-03-14T10:43:47;16.30;92.80
1678;DHT22;6034;46.864;15.216;2023-03-14T10:46:17;16.20;92.60
1678;DHT22;6034;46.864;15.216;2023-03-14T10:48:46;16.10;92.50
1678;DHT22;6034;46.864;15.216;2023-03-14T10:51:22;16.10;92.30
1678;DHT22;6034;46.864;15.216;2023-03-14T10:53:56;16.20;92.20
1678;DHT22;6034;46.864;15.216;2023-03-14T10:56:25;16.10;91.90
1678;DHT22;6034;46.864;15.216;2023-03-14T10:58:56;16.10;91.10
1678;DHT22;6034;46.864;15.216;2023-03-14T11:01:37;16.00;90.30
1678;DHT22;6034;46.864;15.216;2023-03-14T11:04:14;16.20;90.30
1678;DHT22;6034;46.864;15.216;2023-03-14T11:06:46;16.50;90.10
1678;DHT22;6034;46.864;15.216;2023-03-14T11:09:22;16.60;88.40
1678;DHT22;6034;46.864;15.216;2023-03-14T11:11:51;16.60;88.10
1678;DHT22;6034;46.864;15.216;2023-03-14T11:14:29;16.70;87.50
1678;DHT22;6034;46.864;15.216;2023-03-14T11:17:01;16.70;86.80
1678;DHT22;6034;46.864;15.216;2023-03-14T11:19:49;16.90;89.70
1678;DHT22;6034;46.864;15.216;2023-03-14T11:22:21;16.80;86.20
1678;DHT22;6034;46.864;15.216;2023-03-14T11:25:02;16.90;84.80
1678;DHT22;6034;46.864;15.216;2023-03-14T11:27:35;16.90;82.10
1678;DHT22;6034;46.864;15.216;2023-03-14T11:30:19;16.80;82.00
1678;DHT22;6034;46.864;15.216;2023-03-14T11:32:55;16.90;82.20
1678;DHT22;6034;46.864;15.216;2023-03-14T11:35:26;16.80;81.30
1678;DHT22;6034;46.864;15.216;2023-03-14T11:38:04;16.50;77.80
1678;DHT22;6034;46.864;15.216;2023-03-14T11:40:34;16.40;81.30
1678;DHT22;6034;46.864;15.216;2023-03-14T11:43:10;16.30;79.90
1678;DHT22;6034;46.864;15.216;2023-03-14T11:45:41;16.30;79.60
1678;DHT22;6034;46.864;15.216;2023-03-14T11:48:19;16.30;78.90
1678;DHT22;6034;46.864;15.216;2023-03-14T11:50:52;16.30;80.50
1678;DHT22;6034;46.864;15.216;2023-03-14T11:53:25;16.50;80.20
1678;DHT22;6034;46.864;15.216;2023-03-14T11:55:56;16.80;81.40
1678;DHT22;6034;46.864;15.216;2023-03-14T11:58:27;16.80;81.90
1678;DHT22;6034;46.864;15.216;2023-03-14T12:00:57;16.70;78.90
1678;DHT22;6034;46.864;15.216;2023-03-14T12:03:34;16.50;80.20
1678;DHT22;6034;46.864;15.216;2023-03-14T12:06:09;16.30;79.10
1678;DHT22;6034;46.864;15.216;2023-03-14T12:08:44;16.50;81.60
1678;DHT22;6034;46.864;15.216;2023-03-14T12:11:22;16.30;79.50
1678;DHT22;6034;46.864;15.216;2023-03-14T12:13:52;16.20;79.70
1678;DHT22;6034;46.864;15.216;2023-03-14T12:16:30;16.40;80.80
1678;DHT22;6034;46.864;15.216;2023-03-14T12:22:01;16.30;80.00
1678;DHT22;6034;46.864;15.216;2023-03-14T12:24:34;16.30;80.50
1678;DHT22;6034;46.864;15.216;2023-03-14T12:27:05;16.30;80.50
1678;DHT22;6034;46.864;15.216;2023-03-14T12:29:57;16.30;82.00
1678;DHT22;6034;46.864;15.216;2023-03-14T12:32:27;16.30;82.20
1678;DHT22;6034;46.864;15.216;2023-03-14T12:34:54;16.50;82.80
1678;DHT22;6034;46.864;15.216;2023-03-14T12:37:33;16.60;81.10
1678;DHT22;6034;46.864;15.216;2023-03-14T12:40:20;16.80;84.10
1678;DHT22;6034;46.864;15.216;2023-03-14T12:42:59;17.00;83.00
1678;DHT22;6034;46.864;15.216;2023-03-14T12:45:28;16.90;80.40
1678;DHT22;6034;46.864;15.216;2023-03-14T12:48:03;17.00;81.90
1678;DHT22;6034;46.864;15.216;2023-03-14T12:50:36;16.70;79.00
1678;DHT22;6034;46.864;15.216;2023-03-14T12:53:45;16.70;82.60
1678;DHT22;6034;46.864;15.216;2023-03-14T12:56:26;16.60;79.40
1678;DHT22;6034;46.864;15.216;2023-03-14T12:59:05;16.40;78.30
1678;DHT22;6034;46.864;15.216;2023-03-14T13:01:46;16.60;80.10
1678;DHT22;6034;46.864;15.216;2023-03-14T13:04:16;16.80;78.30
1678;DHT22;6034;46.864;15.216;2023-03-14T13:06:52;17.00;78.90
1678;DHT22;6034;46.864;15.216;2023-03-14T13:12:28;17.10;78.70
1678;DHT22;6034;46.864;15.216;2023-03-14T13:14:59;17.20;78.20
1678;DHT22;6034;46.864;15.216;2023-03-14T13:17:32;17.10;80.00
1678;DHT22;6034;46.864;15.216;2023-03-14T13:20:09;17.00;79.00
1678;DHT22;6034;46.864;15.216;2023-03-14T13:22:38;17.30;80.40
1678;DHT22;6034;46.864;15.216;2023-03-14T13:25:07;17.40;78.10
1678;DHT22;6034;46.864;15.216;2023-03-14T13:27:37;17.50;79.10
1678;DHT22;6034;46.864;15.216;2023-03-14T13:30:21;17.40;80.30
1678;DHT22;6034;46.864;15.216;2023-03-14T13:32:50;17.50;81.40
1678;DHT22;6034;46.864;15.216;2023-03-14T13:35:22;17.60;79.30
1678;DHT22;6034;46.864;15.216;2023-03-14T13:37:56;17.50;77.10
1678;DHT22;6034;46.864;15.216;2023-03-14T13:40:28;17.50;77.20
1678;DHT22;6034;46.864;15.216;2023-03-14T13:43:05;17.60;77.40
1678;DHT22;6034;46.864;15.216;2023-03-14T13:45:45;17.60;76.80
1678;DHT22;6034;46.864;15.216;2023-03-14T13:48:15;17.60;76.60
1678;DHT22;6034;46.864;15.216;2023-03-14T13:50:55;17.80;78.10
1678;DHT22;6034;46.864;15.216;2023-03-14T13:53:23;17.80;78.20
1678;DHT22;6034;46.864;15.216;2023-03-14T13:55:51;17.80;77.40
1678;DHT22;6034;46.864;15.216;2023-03-14T13:58:26;17.70;77.20
1678;DHT22;6034;46.864;15.216;2023-03-14T14:01:00;17.80;77.60
1678;DHT22;6034;46.864;15.216;2023-03-14T14:03:31;17.60;76.50
1678;DHT22;6034;46.864;15.216;2023-03-14T14:06:00;17.50;76.80
1678;DHT22;6034;46.864;15.216;2023-03-14T14:08:27;17.30;76.60
1678;DHT22;6034;46.864;15.216;2023-03-14T14:10:59;17.30;77.70
1678;DHT22;6034;46.864;15.216;2023-03-14T14:13:30;17.30;77.90
1678;DHT22;6034;46.864;15.216;2023-03-14T14:16:01;17.20;76.90
1678;DHT22;6034;46.864;15.216;2023-03-14T14:18:31;17.00;78.90
1678;DHT22;6034;46.864;15.216;2023-03-14T14:21:00;17.00;79.50
1678;DHT22;6034;46.864;15.216;2023-03-14T14:23:29;17.00;78.20
1678;DHT22;6034;46.864;15.216;2023-03-14T14:25:58;17.10;79.00
1678;DHT22;6034;46.864;15.216;2023-03-14T14:28:27;17.20;79.10
1678;DHT22;6034;46.864;15.216;2023-03-14T14:31:16;17.20;80.80
1678;DHT22;6034;46.864;15.216;2023-03-14T14:33:45;17.20;79.90
1678;DHT22;6034;46.864;15.216;2023-03-14T14:36:20;16.80;76.30
1678;DHT22;6034;46.864;15.216;2023-03-14T14:38:58;16.90;81.10
1678;DHT22;6034;46.864;15.216;2023-03-14T14:41:33;16.90;80.90
1678;DHT22;6034;46.864;15.216;2023-03-14T14:44:04;16.70;82.30
1678;DHT22;6034;46.864;15.216;2023-03-14T14:46:35;16.80;83.40
1678;DHT22;6034;46.864;15.216;2023-03-14T14:49:05;16.80;79.60
1678;DHT22;6034;46.864;15.216;2023-03-14T14:51:42;16.80;80.10
1678;DHT22;6034;46.864;15.216;2023-03-14T14:54:14;16.80;80.10
1678;DHT22;6034;46.864;15.216;2023-03-14T14:56:48;16.80;80.20
1678;DHT22;6034;46.864;15.216;2023-03-14T14:59:23;16.80;80.90
1678;DHT22;6034;46.864;15.216;2023-03-14T15:01:55;16.70;81.30
1678;DHT22;6034;46.864;15.216;2023-03-14T15:04:23;16.50;79.70
1678;DHT22;6034;46.864;15.216;2023-03-14T15:06:52;16.50;79.40
1678;DHT22;6034;46.864;15.216;2023-03-14T15:09:20;16.40;80.40
1678;DHT22;6034;46.864;15.216;2023-03-14T15:11:48;16.40;80.60
1678;DHT22;6034;46.864;15.216;2023-03-14T15:14:15;16.10;78.00
1678;DHT22;6034;46.864;15.216;2023-03-14T15:16:43;16.10;79.60
1678;DHT22;6034;46.864;15.216;2023-03-14T15:19:14;16.10;78.90
1678;DHT22;6034;46.864;15.216;2023-03-14T15:21:42;15.90;79.70
1678;DHT22;6034;46.864;15.216;2023-03-14T15:24:11;15.80;80.30
1678;DHT22;6034;46.864;15.216;2023-03-14T15:26:38;15.80;79.30
1678;DHT22;6034;46.864;15.216;2023-03-14T15:29:08;15.80;78.70
1678;DHT22;6034;46.864;15.216;2023-03-14T15:31:38;15.70;81.20
1678;DHT22;6034;46.864;15.216;2023-03-14T15:34:05;15.70;80.90
1678;DHT22;6034;46.864;15.216;2023-03-14T15:36:34;15.60;81.00
1678;DHT22;6034;46.864;15.216;2023-03-14T15:39:03;15.60;81.50
1678;DHT22;6034;46.864;15.216;2023-03-14T15:41:32;15.50;79.30
1678;DHT22;6034;46.864;15.216;2023-03-14T15:44:00;15.40;80.70
1678;DHT22;6034;46.864;15.216;2023-03-14T15:46:27;15.50;81.50
1678;DHT22;6034;46.864;15.216;2023-03-14T15:48:54;15.50;80.90
1678;DHT22;6034;46.864;15.216;2023-03-14T15:51:22;15.50;81.30
1678;DHT22;6034;46.864;15.216;2023-03-14T15:53:49;15.40;81.50
1678;DHT22;6034;46.864;15.216;2023-03-14T15:56:18;15.40;81.40
1678;DHT22;6034;46.864;15.216;2023-03-14T15:58:47;15.30;81.50
1678;DHT22;6034;46.864;15.216;2023-03-14T16:01:15;15.20;82.00
1678;DHT22;6034;46.864;15.216;2023-03-14T16:03:43;15.10;82.70
1678;DHT22;6034;46.864;15.216;2023-03-14T16:06:11;15.00;83.00
1678;DHT22;6034;46.864;15.216;2023-03-14T16:08:39;15.10;83.70
1678;DHT22;6034;46.864;15.216;2023-03-14T16:11:06;14.80;83.90
1678;DHT22;6034;46.864;15.216;2023-03-14T16:13:33;14.80;85.00
1678;DHT22;6034;46.864;15.216;2023-03-14T16:16:03;14.80;84.90
1678;DHT22;6034;46.864;15.216;2023-03-14T16:18:33;14.70;85.40
1678;DHT22;6034;46.864;15.216;2023-03-14T16:21:02;14.60;85.80
1678;DHT22;6034;46.864;15.216;2023-03-14T16:23:31;14.50;86.90
1678;DHT22;6034;46.864;15.216;2023-03-14T16:25:59;14.50;87.60
1678;DHT22;6034;46.864;15.216;2023-03-14T16:28:26;14.40;88.00
1678;DHT22;6034;46.864;15.216;2023-03-14T16:31:01;14.20;88.50
1678;DHT22;6034;46.864;15.216;2023-03-14T16:33:28;14.20;88.70
1678;DHT22;6034;46.864;15.216;2023-03-14T16:35:57;14.10;89.30
1678;DHT22;6034;46.864;15.216;2023-03-14T16:38:27;14.10;89.80
1678;DHT22;6034;46.864;15.216;2023-03-14T16:40:58;14.00;89.80
1678;DHT22;6034;46.864;15.216;2023-03-14T16:43:26;14.00;90.30
1678;DHT22;6034;46.864;15.216;2023-03-14T16:45:57;13.90;90.30
1678;DHT22;6034;46.864;15.216;2023-03-14T16:48:26;13.90;90.70
1678;DHT22;6034;46.864;15.216;2023-03-14T16:50:57;13.80;90.60
1678;DHT22;6034;46.864;15.216;2023-03-14T16:53:25;14.00;91.00
1678;DHT22;6034;46.864;15.216;2023-03-14T16:55:55;14.00;90.80
1678;DHT22;6034;46.864;15.216;2023-03-14T16:58:23;14.00;91.00
1678;DHT22;6034;46.864;15.216;2023-03-14T17:00:50;14.00;91.40
1678;DHT22;6034;46.864;15.216;2023-03-14T17:03:18;13.80;91.40
1678;DHT22;6034;46.864;15.216;2023-03-14T17:05:49;13.80;91.40
1678;DHT22;6034;46.864;15.216;2023-03-14T17:08:18;13.90;91.40
1678;DHT22;6034;46.864;15.216;2023-03-14T17:10:47;14.00;91.30
1678;DHT22;6034;46.864;15.216;2023-03-14T17:13:15;13.90;91.20
1678;DHT22;6034;46.864;15.216;2023-03-14T17:15:45;13.90;91.30
1678;DHT22;6034;46.864;15.216;2023-03-14T17:18:12;13.80;91.60
1678;DHT22;6034;46.864;15.216;2023-03-14T17:20:41;13.70;91.40
1678;DHT22;6034;46.864;15.216;2023-03-14T17:23:11;13.70;91.40
1678;DHT22;6034;46.864;15.216;2023-03-14T17:25:40;13.60;91.60
1678;DHT22;6034;46.864;15.216;2023-03-14T17:28:08;13.60;91.80
1678;DHT22;6034;46.864;15.216;2023-03-14T17:30:35;13.50;91.60
1678;DHT22;6034;46.864;15.216;2023-03-14T17:33:04;13.40;91.20
1678;DHT22;6034;46.864;15.216;2023-03-14T17:35:33;13.40;90.60
1678;DHT22;6034;46.864;15.216;2023-03-14T17:38:00;13.40;90.70
1678;DHT22;6034;46.864;15.216;2023-03-14T17:40:29;13.40;90.70
1678;DHT22;6034;46.864;15.216;2023-03-14T17:42:59;13.40;90.90
1678;DHT22;6034;46.864;15.216;2023-03-14T17:45:32;13.50;91.40
1678;DHT22;6034;46.864;15.216;2023-03-14T17:48:01;13.50;91.40
1678;DHT22;6034;46.864;15.216;2023-03-14T17:50:29;13.50;90.70
1678;DHT22;6034;46.864;15.216;2023-03-14T17:52:57;13.40;90.70
1678;DHT22;6034;46.864;15.216;2023-03-14T17:55:26;13.50;91.10
1678;DHT22;6034;46.864;15.216;2023-03-14T17:57:57;13.40;90.80
1678;DHT22;6034;46.864;15.216;2023-03-14T18:00:28;13.40;91.50
1678;DHT22;6034;46.864;15.216;2023-03-14T18:02:56;13.40;91.90
1678;DHT22;6034;46.864;15.216;2023-03-14T18:05:25;13.30;92.10
1678;DHT22;6034;46.864;15.216;2023-03-14T18:07:55;13.10;91.60
1678;DHT22;6034;46.864;15.216;2023-03-14T18:10:26;13.10;91.50
1678;DHT22;6034;46.864;15.216;2023-03-14T18:12:56;13.00;92.00
1678;DHT22;6034;46.864;15.216;2023-03-14T18:15:28;12.50;92.50
1678;DHT22;6034;46.864;15.216;2023-03-14T18:17:59;12.90;92.40
1678;DHT22;6034;46.864;15.216;2023-03-14T18:20:27;12.90;92.20
1678;DHT22;6034;46.864;15.216;2023-03-14T18:22:55;13.00;92.10
1678;DHT22;6034;46.864;15.216;2023-03-14T18:25:26;13.00;92.20
1678;DHT22;6034;46.864;15.216;2023-03-14T18:27:57;13.00;92.50
1678;DHT22;6034;46.864;15.216;2023-03-14T18:30:24;12.80;92.60
1678;DHT22;6034;46.864;15.216;2023-03-14T18:32:52;12.50;93.80
1678;DHT22;6034;46.864;15.216;2023-03-14T18:35:21;12.40;94.50
1678;DHT22;6034;46.864;15.216;2023-03-14T18:37:50;12.60;94.10
1678;DHT22;6034;46.864;15.216;2023-03-14T18:40:19;12.50;94.20
1678;DHT22;6034;46.864;15.216;2023-03-14T18:42:48;12.60;94.50
1678;DHT22;6034;46.864;15.216;2023-03-14T18:45:19;12.80;94.40
1678;DHT22;6034;46.864;15.216;2023-03-14T18:47:46;12.80;94.50
1678;DHT22;6034;46.864;15.216;2023-03-14T18:50:15;12.80;94.60
1678;DHT22;6034;46.864;15.216;2023-03-14T18:52:44;12.80;94.70
1678;DHT22;6034;46.864;15.216;2023-03-14T18:55:13;12.80;94.90
1678;DHT22;6034;46.864;15.216;2023-03-14T18:57:44;12.80;94.80
1678;DHT22;6034;46.864;15.216;2023-03-14T19:00:14;12.80;94.90
1678;DHT22;6034;46.864;15.216;2023-03-14T19:02:46;12.80;94.90
1678;DHT22;6034;46.864;15.216;2023-03-14T19:05:14;12.60;95.20
1678;DHT22;6034;46.864;15.216;2023-03-14T19:07:42;12.20;96.30
1678;DHT22;6034;46.864;15.216;2023-03-14T19:10:11;12.50;96.20
1678;DHT22;6034;46.864;15.216;2023-03-14T19:12:38;12.60;95.70
1678;DHT22;6034;46.864;15.216;2023-03-14T19:15:09;12.50;95.70
1678;DHT22;6034;46.864;15.216;2023-03-14T19:17:40;12.50;95.70
1678;DHT22;6034;46.864;15.216;2023-03-14T19:20:14;12.60;96.10
1678;DHT22;6034;46.864;15.216;2023-03-14T19:22:42;12.60;96.60
1678;DHT22;6034;46.864;15.216;2023-03-14T19:25:11;12.60;97.00
1678;DHT22;6034;46.864;15.216;2023-03-14T19:27:39;12.40;97.20
1678;DHT22;6034;46.864;15.216;2023-03-14T19:30:08;12.50;97.80
1678;DHT22;6034;46.864;15.216;2023-03-14T19:32:36;12.40;98.60
1678;DHT22;6034;46.864;15.216;2023-03-14T19:35:05;12.20;99.20
1678;DHT22;6034;46.864;15.216;2023-03-14T19:37:35;12.20;99.90
1678;DHT22;6034;46.864;15.216;2023-03-14T19:40:06;12.10;99.90
1678;DHT22;6034;46.864;15.216;2023-03-14T19:42:36;12.10;99.90
1678;DHT22;6034;46.864;15.216;2023-03-14T19:45:07;11.80;99.90
1678;DHT22;6034;46.864;15.216;2023-03-14T19:47:36;11.70;99.90
1678;DHT22;6034;46.864;15.216;2023-03-14T19:50:05;11.90;99.90
1678;DHT22;6034;46.864;15.216;2023-03-14T19:52:36;11.90;99.90
1678;DHT22;6034;46.864;15.216;2023-03-14T19:55:13;11.90;99.90
1678;DHT22;6034;46.864;15.216;2023-03-14T19:57:43;11.90;99.90
1678;DHT22;6034;46.864;15.216;2023-03-14T20:00:12;12.00;99.90
1678;DHT22;6034;46.864;15.216;2023-03-14T20:02:44;11.90;99.90
1678;DHT22;6034;46.864;15.216;2023-03-14T20:05:15;11.90;99.90
1678;DHT22;6034;46.864;15.216;2023-03-14T20:07:46;11.90;99.90
1678;DHT22;6034;46.864;15.216;2023-03-14T20:10:17;12.00;99.90
1678;DHT22;6034;46.864;15.216;2023-03-14T20:12:49;12.00;99.90
1678;DHT22;6034;46.864;15.216;2023-03-14T20:15:18;11.80;99.90
1678;DHT22;6034;46.864;15.216;2023-03-14T20:17:48;11.80;99.90
1678;DHT22;6034;46.864;15.216;2023-03-14T20:20:19;11.70;99.90
1678;DHT22;6034;46.864;15.216;2023-03-14T20:22:49;11.50;99.90
1678;DHT22;6034;46.864;15.216;2023-03-14T20:25:19;11.40;99.90
1678;DHT22;6034;46.864;15.216;2023-03-14T20:27:50;11.30;99.90
1678;DHT22;6034;46.864;15.216;2023-03-14T20:30:19;11.30;99.90
1678;DHT22;6034;46.864;15.216;2023-03-14T20:32:49;11.40;99.90
1678;DHT22;6034;46.864;15.216;2023-03-14T20:35:19;11.60;99.90
1678;DHT22;6034;46.864;15.216;2023-03-14T20:37:53;11.60;99.90
1678;DHT22;6034;46.864;15.216;2023-03-14T20:40:30;11.50;99.90
1678;DHT22;6034;46.864;15.216;2023-03-14T20:42:59;11.40;99.90
1678;DHT22;6034;46.864;15.216;2023-03-14T20:45:27;11.50;99.90
1678;DHT22;6034;46.864;15.216;2023-03-14T20:47:57;11.40;99.90
1678;DHT22;6034;46.864;15.216;2023-03-14T20:50:25;11.50;99.90
1678;DHT22;6034;46.864;15.216;2023-03-14T20:52:56;11.40;99.90
1678;DHT22;6034;46.864;15.216;2023-03-14T20:55:23;11.50;99.90
1678;DHT22;6034;46.864;15.216;2023-03-14T20:57:51;11.40;99.90
1678;DHT22;6034;46.864;15.216;2023-03-14T21:00:20;11.40;99.90
1678;DHT22;6034;46.864;15.216;2023-03-14T21:02:49;11.40;99.90
1678;DHT22;6034;46.864;15.216;2023-03-14T21:05:19;11.40;99.90
1678;DHT22;6034;46.864;15.216;2023-03-14T21:07:48;11.40;99.90
1678;DHT22;6034;46.864;15.216;2023-03-14T21:10:21;11.40;99.90
1678;DHT22;6034;46.864;15.216;2023-03-14T21:12:51;11.30;99.90
1678;DHT22;6034;46.864;15.216;2023-03-14T21:15:19;11.30;99.90
1678;DHT22;6034;46.864;15.216;2023-03-14T21:17:50;11.30;99.90
1678;DHT22;6034;46.864;15.216;2023-03-14T21:20:19;11.30;99.90
1678;DHT22;6034;46.864;15.216;2023-03-14T21:22:51;11.30;99.90
1678;DHT22;6034;46.864;15.216;2023-03-14T21:25:21;11.30;99.90
1678;DHT22;6034;46.864;15.216;2023-03-14T21:27:50;11.20;99.90
1678;DHT22;6034;46.864;15.216;2023-03-14T21:30:18;11.10;99.90
1678;DHT22;6034;46.864;15.216;2023-03-14T21:32:47;11.00;99.90
1678;DHT22;6034;46.864;15.216;2023-03-14T21:35:15;11.10;99.90